Farmers Retreat, Indiana
Current Conditions -  °F | °C
As of 5:38 AM on Thursday 23 Oct 2014 (Local Time) from KCVG Reporting Station
Scattered Clouds Scattered Clouds  
Wind Chill: 42°   Ceiling: Unl
Heat Index: 45°   Visibility: 9mi
Dew Point: 39°   Wind: 5mph
Humidity: 81%   Direction: 310°NW
Pressure: 30.24"   Gusts: NA
Location:  38.9645°N, 85.0582°W
Report Text: KCVG 230938Z 31004KT 9SM SCT027 07/04 A3024 RMK AO2 SCT V FEW
Loading
Personal Weather Stations






























Interactive Weather Map New forecast layout! Learn more

10-Day Weather Forecast

Advertisements
Track Severe Weather on mobile